sensor_id;sensor_type;location;lat;lon;timestamp;pressure;altitude;pressure_sealevel;temperature;humidity
43298;BME280;28892;55.640;37.532;2023-07-28T00:00:10;97268.03;;;21.93;76.71
43298;BME280;28892;55.640;37.532;2023-07-28T00:02:36;97265.44;;;21.87;76.39
43298;BME280;28892;55.640;37.532;2023-07-28T00:05:05;97272.44;;;21.88;76.76
43298;BME280;28892;55.640;37.532;2023-07-28T00:07:31;97295.38;;;22.00;76.27
43298;BME280;28892;55.640;37.532;2023-07-28T00:12:31;97311.41;;;21.96;76.74
43298;BME280;28892;55.640;37.532;2023-07-28T00:14:57;97313.84;;;21.70;77.68
43298;BME280;28892;55.640;37.532;2023-07-28T00:17:24;97305.34;;;21.76;77.40
43298;BME280;28892;55.640;37.532;2023-07-28T00:19:50;97313.84;;;21.84;77.01
43298;BME280;28892;55.640;37.532;2023-07-28T00:22:16;97323.81;;;21.83;77.42
43298;BME280;28892;55.640;37.532;2023-07-28T00:24:42;97322.44;;;21.86;77.07
43298;BME280;28892;55.640;37.532;2023-07-28T00:27:07;97319.94;;;21.89;77.03
43298;BME280;28892;55.640;37.532;2023-07-28T00:29:33;97326.09;;;21.90;76.43
43298;BME280;28892;55.640;37.532;2023-07-28T00:32:02;97321.63;;;21.85;77.12
43298;BME280;28892;55.640;37.532;2023-07-28T00:34:28;97327.00;;;21.85;76.93
43298;BME280;28892;55.640;37.532;2023-07-28T00:36:54;97315.53;;;21.80;77.43
43298;BME280;28892;55.640;37.532;2023-07-28T00:39:20;97319.81;;;21.81;77.26
43298;BME280;28892;55.640;37.532;2023-07-28T00:41:45;97317.22;;;21.89;76.82
43298;BME280;28892;55.640;37.532;2023-07-28T00:44:11;97296.53;;;21.85;76.79
43298;BME280;28892;55.640;37.532;2023-07-28T00:46:37;97302.34;;;21.78;77.40
43298;BME280;28892;55.640;37.532;2023-07-28T00:49:03;97295.16;;;21.73;77.24
43298;BME280;28892;55.640;37.532;2023-07-28T00:51:31;97295.47;;;21.72;77.33
43298;BME280;28892;55.640;37.532;2023-07-28T00:53:57;97297.88;;;21.73;76.83
43298;BME280;28892;55.640;37.532;2023-07-28T00:56:24;97289.34;;;21.80;76.64
43298;BME280;28892;55.640;37.532;2023-07-28T00:58:50;97287.44;;;21.81;76.00
43298;BME280;28892;55.640;37.532;2023-07-28T01:01:16;97293.75;;;21.76;76.17
43298;BME280;28892;55.640;37.532;2023-07-28T01:03:42;97293.53;;;21.86;75.71
43298;BME280;28892;55.640;37.532;2023-07-28T01:06:20;97295.44;;;21.86;76.75
43298;BME280;28892;55.640;37.532;2023-07-28T01:09:09;97286.25;;;21.87;76.60
43298;BME280;28892;55.640;37.532;2023-07-28T01:11:37;97285.06;;;21.79;76.40
43298;BME280;28892;55.640;37.532;2023-07-28T01:14:03;97287.75;;;21.79;76.51
43298;BME280;28892;55.640;37.532;2023-07-28T01:16:29;97282.97;;;21.76;76.17
43298;BME280;28892;55.640;37.532;2023-07-28T01:18:55;97277.69;;;21.71;76.02
43298;BME280;28892;55.640;37.532;2023-07-28T01:21:25;97270.09;;;21.73;76.01
43298;BME280;28892;55.640;37.532;2023-07-28T01:24:06;97264.50;;;21.69;76.21
43298;BME280;28892;55.640;37.532;2023-07-28T01:26:38;97266.19;;;21.79;75.29
43298;BME280;28892;55.640;37.532;2023-07-28T01:29:06;97247.69;;;21.72;75.11
43298;BME280;28892;55.640;37.532;2023-07-28T01:31:32;97252.56;;;21.84;74.55
43298;BME280;28892;55.640;37.532;2023-07-28T01:33:59;97254.47;;;21.84;74.50
43298;BME280;28892;55.640;37.532;2023-07-28T01:36:25;97258.56;;;21.81;74.33
43298;BME280;28892;55.640;37.532;2023-07-28T01:38:51;97257.97;;;21.84;74.54
43298;BME280;28892;55.640;37.532;2023-07-28T01:41:17;97249.13;;;21.70;74.99
43298;BME280;28892;55.640;37.532;2023-07-28T01:43:42;97253.41;;;21.71;75.27
43298;BME280;28892;55.640;37.532;2023-07-28T01:46:08;97243.91;;;21.73;74.84
43298;BME280;28892;55.640;37.532;2023-07-28T01:48:35;97238.88;;;21.81;74.64
43298;BME280;28892;55.640;37.532;2023-07-28T01:51:01;97232.56;;;21.85;73.89
43298;BME280;28892;55.640;37.532;2023-07-28T01:53:26;97242.47;;;21.76;74.70
43298;BME280;28892;55.640;37.532;2023-07-28T01:55:53;97247.81;;;21.67;75.09
43298;BME280;28892;55.640;37.532;2023-07-28T01:58:19;97251.19;;;21.59;75.23
43298;BME280;28892;55.640;37.532;2023-07-28T02:00:44;97244.69;;;21.60;75.28
43298;BME280;28892;55.640;37.532;2023-07-28T02:03:12;97243.31;;;21.48;75.83
43298;BME280;28892;55.640;37.532;2023-07-28T02:05:38;97252.09;;;21.54;76.19
43298;BME280;28892;55.640;37.532;2023-07-28T02:08:04;97244.81;;;21.55;75.79
43298;BME280;28892;55.640;37.532;2023-07-28T02:10:29;97243.91;;;21.59;75.68
43298;BME280;28892;55.640;37.532;2023-07-28T02:12:56;97238.38;;;21.64;75.20
43298;BME280;28892;55.640;37.532;2023-07-28T02:15:22;97231.44;;;21.49;75.82
43298;BME280;28892;55.640;37.532;2023-07-28T02:17:48;97234.81;;;21.55;75.12
43298;BME280;28892;55.640;37.532;2023-07-28T02:20:16;97244.00;;;21.54;75.13
43298;BME280;28892;55.640;37.532;2023-07-28T02:22:42;97249.03;;;21.47;75.83
43298;BME280;28892;55.640;37.532;2023-07-28T02:25:09;97258.50;;;21.44;76.27
43298;BME280;28892;55.640;37.532;2023-07-28T02:27:36;97248.63;;;21.40;76.43
43298;BME280;28892;55.640;37.532;2023-07-28T02:30:04;97256.53;;;21.36;76.87
43298;BME280;28892;55.640;37.532;2023-07-28T02:32:32;97256.63;;;21.17;77.63
43298;BME280;28892;55.640;37.532;2023-07-28T02:34:59;97253.25;;;21.25;76.94
43298;BME280;28892;55.640;37.532;2023-07-28T02:37:27;97271.91;;;21.21;77.31
43298;BME280;28892;55.640;37.532;2023-07-28T02:39:53;97261.81;;;21.27;76.78
43298;BME280;28892;55.640;37.532;2023-07-28T02:42:22;97290.38;;;21.28;76.66
43298;BME280;28892;55.640;37.532;2023-07-28T02:44:49;97292.88;;;21.25;76.81
43298;BME280;28892;55.640;37.532;2023-07-28T02:47:15;97288.88;;;21.22;77.28
43298;BME280;28892;55.640;37.532;2023-07-28T02:49:41;97274.69;;;21.30;77.02
43298;BME280;28892;55.640;37.532;2023-07-28T02:52:07;97276.00;;;21.33;76.35
43298;BME280;28892;55.640;37.532;2023-07-28T02:54:33;97291.06;;;21.48;75.82
43298;BME280;28892;55.640;37.532;2023-07-28T02:56:59;97288.19;;;21.44;75.67
43298;BME280;28892;55.640;37.532;2023-07-28T02:59:24;97258.94;;;21.38;75.74
43298;BME280;28892;55.640;37.532;2023-07-28T03:01:50;97256.72;;;21.40;75.66
43298;BME280;28892;55.640;37.532;2023-07-28T03:04:18;97251.81;;;21.42;75.25
43298;BME280;28892;55.640;37.532;2023-07-28T03:07:25;97263.13;;;21.30;75.50
43298;BME280;28892;55.640;37.532;2023-07-28T03:09:57;97306.34;;;21.39;75.32
43298;BME280;28892;55.640;37.532;2023-07-28T03:12:24;97302.84;;;21.38;75.12
43298;BME280;28892;55.640;37.532;2023-07-28T03:14:50;97323.25;;;21.44;75.42
43298;BME280;28892;55.640;37.532;2023-07-28T03:17:16;97320.75;;;21.34;75.48
43298;BME280;28892;55.640;37.532;2023-07-28T03:19:42;97306.56;;;21.42;74.80
43298;BME280;28892;55.640;37.532;2023-07-28T03:22:08;97287.66;;;21.56;74.53
43298;BME280;28892;55.640;37.532;2023-07-28T03:24:34;97280.56;;;21.60;73.98
43298;BME280;28892;55.640;37.532;2023-07-28T03:27:00;97307.84;;;21.73;73.54
43298;BME280;28892;55.640;37.532;2023-07-28T03:29:26;97313.06;;;21.69;73.51
43298;BME280;28892;55.640;37.532;2023-07-28T03:31:52;97305.16;;;21.73;73.50
43298;BME280;28892;55.640;37.532;2023-07-28T03:34:18;97321.94;;;21.70;73.60
43298;BME280;28892;55.640;37.532;2023-07-28T03:36:45;97363.31;;;21.79;73.40
43298;BME280;28892;55.640;37.532;2023-07-28T03:39:11;97393.94;;;21.55;74.61
43298;BME280;28892;55.640;37.532;2023-07-28T03:41:37;97431.72;;;21.41;75.59
43298;BME280;28892;55.640;37.532;2023-07-28T03:44:03;97468.16;;;21.39;75.88
43298;BME280;28892;55.640;37.532;2023-07-28T03:46:29;97521.75;;;21.26;76.65
43298;BME280;28892;55.640;37.532;2023-07-28T03:48:55;97485.97;;;21.20;77.89
43298;BME280;28892;55.640;37.532;2023-07-28T03:51:29;97481.78;;;20.95;78.79
43298;BME280;28892;55.640;37.532;2023-07-28T03:53:55;97458.97;;;20.68;80.31
43298;BME280;28892;55.640;37.532;2023-07-28T03:56:21;97445.34;;;20.78;79.36
43298;BME280;28892;55.640;37.532;2023-07-28T03:58:47;97419.59;;;20.53;80.94
43298;BME280;28892;55.640;37.532;2023-07-28T04:01:12;97384.81;;;20.57;80.81
43298;BME280;28892;55.640;37.532;2023-07-28T04:03:39;97312.94;;;20.71;80.56
43298;BME280;28892;55.640;37.532;2023-07-28T04:06:10;97260.13;;;20.89;79.86
43298;BME280;28892;55.640;37.532;2023-07-28T04:08:37;97253.91;;;20.89;79.05
43298;BME280;28892;55.640;37.532;2023-07-28T04:11:03;97209.03;;;20.98;79.83
43298;BME280;28892;55.640;37.532;2023-07-28T04:13:29;97195.22;;;21.28;77.05
43298;BME280;28892;55.640;37.532;2023-07-28T04:15:54;97145.69;;;21.38;76.38
43298;BME280;28892;55.640;37.532;2023-07-28T04:18:22;97160.44;;;21.40;76.13
43298;BME280;28892;55.640;37.532;2023-07-28T04:20:49;97144.25;;;21.40;76.00
43298;BME280;28892;55.640;37.532;2023-07-28T04:23:15;97154.34;;;21.34;75.86
43298;BME280;28892;55.640;37.532;2023-07-28T04:25:41;97142.50;;;21.35;76.75
43298;BME280;28892;55.640;37.532;2023-07-28T04:28:06;97133.72;;;21.30;77.44
43298;BME280;28892;55.640;37.532;2023-07-28T04:30:32;97155.66;;;21.37;77.55
43298;BME280;28892;55.640;37.532;2023-07-28T04:32:58;97165.25;;;21.43;76.20
43298;BME280;28892;55.640;37.532;2023-07-28T04:35:30;97199.56;;;21.52;75.62
43298;BME280;28892;55.640;37.532;2023-07-28T04:38:03;97195.88;;;21.47;75.79
43298;BME280;28892;55.640;37.532;2023-07-28T04:40:41;97204.78;;;21.48;75.81
43298;BME280;28892;55.640;37.532;2023-07-28T04:43:08;97199.97;;;21.45;75.49
43298;BME280;28892;55.640;37.532;2023-07-28T04:45:34;97203.41;;;21.37;76.14
43298;BME280;28892;55.640;37.532;2023-07-28T04:48:12;97198.09;;;21.31;76.44
43298;BME280;28892;55.640;37.532;2023-07-28T04:51:05;97214.94;;;21.51;77.14
43298;BME280;28892;55.640;37.532;2023-07-28T04:54:25;97212.13;;;21.56;77.45
43298;BME280;28892;55.640;37.532;2023-07-28T04:56:53;97208.44;;;21.52;76.56
43298;BME280;28892;55.640;37.532;2023-07-28T04:59:30;97220.84;;;21.53;77.29
43298;BME280;28892;55.640;37.532;2023-07-28T05:02:06;97227.34;;;21.52;76.97
43298;BME280;28892;55.640;37.532;2023-07-28T05:04:58;97237.13;;;21.48;77.55
43298;BME280;28892;55.640;37.532;2023-07-28T05:07:34;97235.72;;;21.50;78.26
43298;BME280;28892;55.640;37.532;2023-07-28T05:10:08;97247.50;;;21.55;77.98
43298;BME280;28892;55.640;37.532;2023-07-28T05:12:37;97251.31;;;21.40;78.27
43298;BME280;28892;55.640;37.532;2023-07-28T05:15:28;97257.41;;;21.45;78.18
43298;BME280;28892;55.640;37.532;2023-07-28T05:18:06;97263.72;;;21.41;78.19
43298;BME280;28892;55.640;37.532;2023-07-28T05:20:45;97269.91;;;21.41;78.63
43298;BME280;28892;55.640;37.532;2023-07-28T05:23:26;97268.19;;;21.17;78.74
43298;BME280;28892;55.640;37.532;2023-07-28T05:26:05;97256.81;;;21.34;78.58
43298;BME280;28892;55.640;37.532;2023-07-28T05:28:39;97265.22;;;21.47;78.05
43298;BME280;28892;55.640;37.532;2023-07-28T05:31:10;97253.09;;;21.58;77.43
43298;BME280;28892;55.640;37.532;2023-07-28T05:33:52;97261.50;;;21.57;77.19
43298;BME280;28892;55.640;37.532;2023-07-28T05:36:23;97257.56;;;21.77;75.68
43298;BME280;28892;55.640;37.532;2023-07-28T05:38:57;97257.75;;;21.81;74.77
43298;BME280;28892;55.640;37.532;2023-07-28T05:41:39;97268.66;;;21.89;75.14
43298;BME280;28892;55.640;37.532;2023-07-28T05:44:09;97257.19;;;21.84;73.47
43298;BME280;28892;55.640;37.532;2023-07-28T05:46:35;97263.09;;;21.44;74.25
43298;BME280;28892;55.640;37.532;2023-07-28T05:49:01;97263.00;;;21.35;74.51
43298;BME280;28892;55.640;37.532;2023-07-28T05:51:27;97250.50;;;21.53;74.21
43298;BME280;28892;55.640;37.532;2023-07-28T05:54:06;97258.66;;;21.62;74.89
43298;BME280;28892;55.640;37.532;2023-07-28T05:57:15;97263.97;;;21.81;74.54
43298;BME280;28892;55.640;37.532;2023-07-28T05:59:46;97260.69;;;21.56;75.06
43298;BME280;28892;55.640;37.532;2023-07-28T06:02:23;97277.97;;;21.69;75.30
43298;BME280;28892;55.640;37.532;2023-07-28T06:05:16;97291.16;;;21.85;73.84
43298;BME280;28892;55.640;37.532;2023-07-28T06:08:02;97276.09;;;21.70;74.75
43298;BME280;28892;55.640;37.532;2023-07-28T06:10:29;97292.13;;;21.61;75.27
43298;BME280;28892;55.640;37.532;2023-07-28T06:12:56;97264.19;;;21.43;74.37
43298;BME280;28892;55.640;37.532;2023-07-28T06:15:52;97256.84;;;21.85;74.80
43298;BME280;28892;55.640;37.532;2023-07-28T06:18:18;97261.31;;;22.04;73.95
43298;BME280;28892;55.640;37.532;2023-07-28T06:21:12;97279.09;;;22.05;73.57
43298;BME280;28892;55.640;37.532;2023-07-28T06:23:38;97261.06;;;22.14;73.89
43298;BME280;28892;55.640;37.532;2023-07-28T06:26:04;97279.34;;;22.17;73.14
43298;BME280;28892;55.640;37.532;2023-07-28T06:28:30;97305.59;;;22.03;73.66
43298;BME280;28892;55.640;37.532;2023-07-28T06:30:58;97352.91;;;21.58;75.51
43298;BME280;28892;55.640;37.532;2023-07-28T06:33:27;97353.09;;;21.48;75.39
43298;BME280;28892;55.640;37.532;2023-07-28T06:35:56;97391.16;;;21.46;76.65
43298;BME280;28892;55.640;37.532;2023-07-28T06:38:22;97422.22;;;21.44;76.58
43298;BME280;28892;55.640;37.532;2023-07-28T06:40:48;97399.81;;;21.29;77.05
43298;BME280;28892;55.640;37.532;2023-07-28T06:43:14;97503.25;;;21.00;78.58
43298;BME280;28892;55.640;37.532;2023-07-28T06:45:40;97516.00;;;20.94;79.17
43298;BME280;28892;55.640;37.532;2023-07-28T06:48:07;97536.00;;;20.69;79.63
43298;BME280;28892;55.640;37.532;2023-07-28T06:50:39;97513.78;;;20.77;78.79
43298;BME280;28892;55.640;37.532;2023-07-28T06:53:05;97449.09;;;20.83;77.93
43298;BME280;28892;55.640;37.532;2023-07-28T06:55:34;97428.25;;;20.69;78.23
43298;BME280;28892;55.640;37.532;2023-07-28T06:58:06;97406.19;;;20.67;77.69
43298;BME280;28892;55.640;37.532;2023-07-28T07:00:36;97395.50;;;20.62;77.54
43298;BME280;28892;55.640;37.532;2023-07-28T07:03:05;97381.56;;;20.74;76.95
43298;BME280;28892;55.640;37.532;2023-07-28T07:05:33;97355.81;;;20.68;77.52
43298;BME280;28892;55.640;37.532;2023-07-28T07:07:59;97366.16;;;20.60;77.75
43298;BME280;28892;55.640;37.532;2023-07-28T07:10:29;97333.16;;;20.88;77.11
43298;BME280;28892;55.640;37.532;2023-07-28T07:12:56;97308.31;;;20.91;77.99
43298;BME280;28892;55.640;37.532;2023-07-28T07:15:24;97342.97;;;20.98;77.65
43298;BME280;28892;55.640;37.532;2023-07-28T07:17:50;97331.81;;;21.04;77.15
43298;BME280;28892;55.640;37.532;2023-07-28T07:20:21;97326.22;;;21.15;77.05
43298;BME280;28892;55.640;37.532;2023-07-28T07:22:47;97300.25;;;21.19;77.37
43298;BME280;28892;55.640;37.532;2023-07-28T07:25:13;97325.31;;;21.33;75.10
43298;BME280;28892;55.640;37.532;2023-07-28T07:27:42;97325.72;;;21.41;74.76
43298;BME280;28892;55.640;37.532;2023-07-28T07:30:12;97332.72;;;21.28;75.40
43298;BME280;28892;55.640;37.532;2023-07-28T07:32:38;97372.53;;;21.17;76.36
43298;BME280;28892;55.640;37.532;2023-07-28T07:35:07;97366.97;;;21.27;76.27
43298;BME280;28892;55.640;37.532;2023-07-28T07:37:37;97360.47;;;21.28;76.22
43298;BME280;28892;55.640;37.532;2023-07-28T07:40:06;97355.31;;;20.85;77.46
43298;BME280;28892;55.640;37.532;2023-07-28T07:42:47;97352.56;;;21.04;77.93
43298;BME280;28892;55.640;37.532;2023-07-28T07:45:14;97362.50;;;20.89;77.71
43298;BME280;28892;55.640;37.532;2023-07-28T07:47:41;97372.84;;;20.82;77.82
43298;BME280;28892;55.640;37.532;2023-07-28T07:50:08;97370.28;;;20.91;78.12
43298;BME280;28892;55.640;37.532;2023-07-28T07:52:35;97368.41;;;20.91;77.64
43298;BME280;28892;55.640;37.532;2023-07-28T07:55:11;97360.25;;;21.11;77.60
43298;BME280;28892;55.640;37.532;2023-07-28T07:57:37;97360.78;;;21.27;76.92
43298;BME280;28892;55.640;37.532;2023-07-28T08:00:37;97365.06;;;21.28;77.39
43298;BME280;28892;55.640;37.532;2023-07-28T08:03:04;97368.19;;;21.49;76.44
43298;BME280;28892;55.640;37.532;2023-07-28T08:05:31;97368.56;;;21.56;76.89
43298;BME280;28892;55.640;37.532;2023-07-28T08:07:57;97362.63;;;21.73;76.41
43298;BME280;28892;55.640;37.532;2023-07-28T08:10:24;97361.88;;;21.96;75.62
43298;BME280;28892;55.640;37.532;2023-07-28T08:12:55;97362.75;;;22.05;75.43
43298;BME280;28892;55.640;37.532;2023-07-28T08:15:21;97369.06;;;22.14;74.13
43298;BME280;28892;55.640;37.532;2023-07-28T08:17:47;97346.41;;;22.61;73.44
43298;BME280;28892;55.640;37.532;2023-07-28T08:20:13;97352.91;;;22.83;72.42
43298;BME280;28892;55.640;37.532;2023-07-28T08:22:39;97347.50;;;22.83;71.71
43298;BME280;28892;55.640;37.532;2023-07-28T08:25:05;97368.41;;;22.68;71.48
43298;BME280;28892;55.640;37.532;2023-07-28T08:27:31;97370.91;;;22.87;72.08
43298;BME280;28892;55.640;37.532;2023-07-28T08:30:01;97380.41;;;23.30;71.36
43298;BME280;28892;55.640;37.532;2023-07-28T08:32:30;97379.13;;;23.37;70.32
43298;BME280;28892;55.640;37.532;2023-07-28T08:35:05;97386.03;;;23.20;69.95
43298;BME280;28892;55.640;37.532;2023-07-28T08:37:34;97384.13;;;23.21;69.71
43298;BME280;28892;55.640;37.532;2023-07-28T08:40:00;97380.59;;;22.88;70.10
43298;BME280;28892;55.640;37.532;2023-07-28T08:42:53;97400.75;;;22.82;71.71
43298;BME280;28892;55.640;37.532;2023-07-28T08:45:25;97392.88;;;22.49;72.12
43298;BME280;28892;55.640;37.532;2023-07-28T08:47:51;97395.16;;;22.56;71.64
43298;BME280;28892;55.640;37.532;2023-07-28T08:50:17;97400.56;;;22.56;71.67
43298;BME280;28892;55.640;37.532;2023-07-28T08:52:43;97394.31;;;22.32;73.42
43298;BME280;28892;55.640;37.532;2023-07-28T08:55:12;97395.75;;;22.53;72.44
43298;BME280;28892;55.640;37.532;2023-07-28T08:57:39;97404.06;;;22.56;72.36
43298;BME280;28892;55.640;37.532;2023-07-28T09:00:09;97413.56;;;22.54;72.87
43298;BME280;28892;55.640;37.532;2023-07-28T09:02:38;97418.88;;;22.45;72.72
43298;BME280;28892;55.640;37.532;2023-07-28T09:05:04;97409.66;;;22.46;73.24
43298;BME280;28892;55.640;37.532;2023-07-28T09:07:50;97420.19;;;22.33;73.98
43298;BME280;28892;55.640;37.532;2023-07-28T09:10:20;97419.78;;;22.54;73.96
43298;BME280;28892;55.640;37.532;2023-07-28T09:12:58;97429.31;;;22.74;73.70
43298;BME280;28892;55.640;37.532;2023-07-28T09:15:44;97434.53;;;22.71;73.50
43298;BME280;28892;55.640;37.532;2023-07-28T09:18:15;97437.38;;;22.52;73.64
43298;BME280;28892;55.640;37.532;2023-07-28T09:20:47;97432.69;;;22.43;72.01
43298;BME280;28892;55.640;37.532;2023-07-28T09:23:30;97454.78;;;22.45;72.41
43298;BME280;28892;55.640;37.532;2023-07-28T09:26:00;97475.41;;;22.55;73.15
43298;BME280;28892;55.640;37.532;2023-07-28T09:28:39;97473.03;;;22.26;73.66
43298;BME280;28892;55.640;37.532;2023-07-28T09:31:11;97497.22;;;22.31;73.91
43298;BME280;28892;55.640;37.532;2023-07-28T09:33:39;97496.50;;;22.39;73.51
43298;BME280;28892;55.640;37.532;2023-07-28T09:36:18;97491.31;;;22.43;73.07
43298;BME280;28892;55.640;37.532;2023-07-28T09:38:48;97485.63;;;22.30;73.42
43298;BME280;28892;55.640;37.532;2023-07-28T09:41:17;97483.44;;;22.18;73.66
43298;BME280;28892;55.640;37.532;2023-07-28T09:43:54;97469.72;;;22.29;74.36
43298;BME280;28892;55.640;37.532;2023-07-28T09:46:26;97472.84;;;22.08;74.55
43298;BME280;28892;55.640;37.532;2023-07-28T09:49:05;97475.72;;;22.26;74.25
43298;BME280;28892;55.640;37.532;2023-07-28T09:51:32;97479.94;;;22.18;74.08
43298;BME280;28892;55.640;37.532;2023-07-28T09:54:12;97482.03;;;22.07;74.96
43298;BME280;28892;55.640;37.532;2023-07-28T09:57:04;97469.34;;;22.08;74.54
43298;BME280;28892;55.640;37.532;2023-07-28T09:59:38;97467.13;;;22.24;74.24
43298;BME280;28892;55.640;37.532;2023-07-28T10:02:06;97458.72;;;22.25;74.05
43298;BME280;28892;55.640;37.532;2023-07-28T10:04:38;97471.63;;;22.28;73.90
43298;BME280;28892;55.640;37.532;2023-07-28T10:07:05;97495.94;;;22.28;74.44
43298;BME280;28892;55.640;37.532;2023-07-28T10:09:33;97500.53;;;22.28;74.69
43298;BME280;28892;55.640;37.532;2023-07-28T10:12:00;97499.13;;;22.30;73.67
43298;BME280;28892;55.640;37.532;2023-07-28T10:14:32;97493.94;;;22.20;73.63
43298;BME280;28892;55.640;37.532;2023-07-28T10:17:00;97501.34;;;22.14;74.84
43298;BME280;28892;55.640;37.532;2023-07-28T10:19:28;97490.22;;;21.88;75.69
43298;BME280;28892;55.640;37.532;2023-07-28T10:22:01;97497.81;;;22.00;76.20
43298;BME280;28892;55.640;37.532;2023-07-28T10:25:07;97482.03;;;22.07;75.40
43298;BME280;28892;55.640;37.532;2023-07-28T10:30:01;97458.47;;;21.85;75.33
43298;BME280;28892;55.640;37.532;2023-07-28T10:32:41;97449.84;;;22.25;73.90
43298;BME280;28892;55.640;37.532;2023-07-28T10:37:43;97433.16;;;22.09;74.95
43298;BME280;28892;55.640;37.532;2023-07-28T10:42:57;97425.97;;;22.04;74.15
43298;BME280;28892;55.640;37.532;2023-07-28T10:45:28;97422.28;;;21.86;74.57
43298;BME280;28892;55.640;37.532;2023-07-28T10:48:07;97435.16;;;21.89;74.76
43298;BME280;28892;55.640;37.532;2023-07-28T10:50:33;97420.34;;;22.00;74.67
43298;BME280;28892;55.640;37.532;2023-07-28T10:53:00;97415.72;;;22.15;74.19
43298;BME280;28892;55.640;37.532;2023-07-28T10:55:35;97396.31;;;22.27;74.42
43298;BME280;28892;55.640;37.532;2023-07-28T10:58:01;97383.00;;;22.30;73.86
43298;BME280;28892;55.640;37.532;2023-07-28T11:00:26;97382.44;;;22.42;73.62
43298;BME280;28892;55.640;37.532;2023-07-28T11:02:57;97378.97;;;22.42;73.28
43298;BME280;28892;55.640;37.532;2023-07-28T11:05:29;97370.38;;;22.40;72.99
43298;BME280;28892;55.640;37.532;2023-07-28T11:08:00;97378.69;;;22.43;71.71
43298;BME280;28892;55.640;37.532;2023-07-28T11:10:47;97368.44;;;22.17;72.62
43298;BME280;28892;55.640;37.532;2023-07-28T11:13:19;97357.59;;;21.95;72.82
43298;BME280;28892;55.640;37.532;2023-07-28T11:16:20;97409.69;;;21.95;73.29
43298;BME280;28892;55.640;37.532;2023-07-28T11:18:55;97420.47;;;21.67;73.30
43298;BME280;28892;55.640;37.532;2023-07-28T11:21:23;97446.06;;;21.70;73.75
43298;BME280;28892;55.640;37.532;2023-07-28T11:23:52;97469.19;;;21.57;74.30
43298;BME280;28892;55.640;37.532;2023-07-28T11:26:24;97486.25;;;21.52;74.87
43298;BME280;28892;55.640;37.532;2023-07-28T11:28:59;97499.91;;;21.42;75.58
43298;BME280;28892;55.640;37.532;2023-07-28T11:31:25;97509.81;;;21.46;75.26
43298;BME280;28892;55.640;37.532;2023-07-28T11:33:52;97505.53;;;21.45;75.80
43298;BME280;28892;55.640;37.532;2023-07-28T11:36:24;97487.56;;;21.55;75.48
43298;BME280;28892;55.640;37.532;2023-07-28T11:38:51;97488.41;;;21.69;74.27
43298;BME280;28892;55.640;37.532;2023-07-28T11:41:19;97452.72;;;21.72;74.58
43298;BME280;28892;55.640;37.532;2023-07-28T11:43:49;97457.44;;;21.81;73.14
43298;BME280;28892;55.640;37.532;2023-07-28T11:46:45;97474.34;;;22.14;72.68
43298;BME280;28892;55.640;37.532;2023-07-28T11:49:13;97488.31;;;21.88;73.40
43298;BME280;28892;55.640;37.532;2023-07-28T11:51:52;97500.94;;;21.79;73.99
43298;BME280;28892;55.640;37.532;2023-07-28T11:54:33;97510.13;;;21.92;73.87
43298;BME280;28892;55.640;37.532;2023-07-28T11:57:17;97517.44;;;22.05;73.23
43298;BME280;28892;55.640;37.532;2023-07-28T11:59:43;97526.81;;;22.08;73.63
43298;BME280;28892;55.640;37.532;2023-07-28T12:02:24;97538.44;;;22.23;73.38
43298;BME280;28892;55.640;37.532;2023-07-28T12:04:55;97524.63;;;22.10;72.73
43298;BME280;28892;55.640;37.532;2023-07-28T12:07:33;97523.41;;;22.02;72.96
43298;BME280;28892;55.640;37.532;2023-07-28T12:10:07;97532.91;;;22.00;73.40
43298;BME280;28892;55.640;37.532;2023-07-28T12:12:44;97532.44;;;22.12;73.54
43298;BME280;28892;55.640;37.532;2023-07-28T12:15:33;97541.72;;;22.19;73.79
43298;BME280;28892;55.640;37.532;2023-07-28T12:20:38;97552.72;;;22.37;73.76
43298;BME280;28892;55.640;37.532;2023-07-28T12:23:06;97559.34;;;22.17;73.97
43298;BME280;28892;55.640;37.532;2023-07-28T12:25:32;97560.25;;;22.12;72.92
43298;BME280;28892;55.640;37.532;2023-07-28T12:27:58;97559.53;;;22.07;71.26
43298;BME280;28892;55.640;37.532;2023-07-28T12:30:27;97571.97;;;21.88;69.50
43298;BME280;28892;55.640;37.532;2023-07-28T12:32:56;97582.69;;;21.60;68.58
43298;BME280;28892;55.640;37.532;2023-07-28T12:35:43;97578.88;;;21.81;68.53
43298;BME280;28892;55.640;37.532;2023-07-28T12:38:14;97592.91;;;21.44;68.96
43298;BME280;28892;55.640;37.532;2023-07-28T12:41:05;97597.53;;;21.05;70.21
43298;BME280;28892;55.640;37.532;2023-07-28T12:43:36;97600.88;;;20.73;71.37
43298;BME280;28892;55.640;37.532;2023-07-28T12:46:11;97602.81;;;20.67;72.43
43298;BME280;28892;55.640;37.532;2023-07-28T12:48:46;97597.22;;;20.63;71.88
43298;BME280;28892;55.640;37.532;2023-07-28T12:51:12;97598.13;;;20.78;71.47
43298;BME280;28892;55.640;37.532;2023-07-28T12:53:40;97604.44;;;20.68;72.22
43298;BME280;28892;55.640;37.532;2023-07-28T12:56:08;97594.00;;;20.61;72.45
43298;BME280;28892;55.640;37.532;2023-07-28T12:58:38;97603.47;;;20.59;72.73
43298;BME280;28892;55.640;37.532;2023-07-28T13:01:12;97612.22;;;20.70;72.77
43298;BME280;28892;55.640;37.532;2023-07-28T13:03:47;97611.41;;;20.69;73.40
43298;BME280;28892;55.640;37.532;2023-07-28T13:06:15;97618.19;;;20.66;72.80
43298;BME280;28892;55.640;37.532;2023-07-28T13:08:45;97617.75;;;20.59;72.77
43298;BME280;28892;55.640;37.532;2023-07-28T13:11:15;97617.22;;;20.57;73.09
43298;BME280;28892;55.640;37.532;2023-07-28T13:13:43;97614.03;;;20.55;73.33
43298;BME280;28892;55.640;37.532;2023-07-28T13:16:09;97619.56;;;20.64;73.21
43298;BME280;28892;55.640;37.532;2023-07-28T13:18:35;97628.03;;;20.76;72.50
43298;BME280;28892;55.640;37.532;2023-07-28T13:21:01;97617.75;;;20.59;72.84